createdAt,value
2022-08-12T00:11:24.618Z,18.79
2022-08-12T00:26:46.755Z,18.60
2022-08-12T00:42:09.009Z,18.45
2022-08-12T00:57:20.087Z,18.34
2022-08-12T01:12:24.050Z,18.29
2022-08-12T01:27:29.253Z,17.93
2022-08-12T01:42:41.996Z,17.72
2022-08-12T01:58:11.945Z,17.67
2022-08-12T02:13:33.210Z,17.62
2022-08-12T02:28:52.621Z,17.46
2022-08-12T02:44:00.392Z,17.44
2022-08-12T02:59:04.448Z,17.32
2022-08-12T03:14:14.309Z,17.20
2022-08-12T03:29:19.699Z,17.16
2022-08-12T03:44:54.165Z,17.11
2022-08-12T04:00:24.330Z,17.10
2022-08-12T04:15:31.912Z,17.31
2022-08-12T04:30:36.853Z,17.53
2022-08-12T04:45:40.791Z,17.80
2022-08-12T05:00:43.854Z,18.20
2022-08-12T05:16:04.970Z,18.96
2022-08-12T05:31:09.234Z,19.67
2022-08-12T05:46:12.309Z,20.37
2022-08-12T06:02:11.482Z,21.19
2022-08-12T06:16:41.088Z,22.03
2022-08-12T06:31:45.678Z,23.04
2022-08-12T06:46:49.365Z,24.14
2022-08-12T07:01:55.246Z,25.16
2022-08-12T07:17:02.445Z,26.06
2022-08-12T07:32:05.659Z,27.18
2022-08-12T07:47:09.142Z,28.12
2022-08-12T08:02:16.332Z,28.94
2022-08-12T08:17:19.550Z,29.66
2022-08-12T08:32:24.760Z,30.58
2022-08-12T08:47:28.159Z,30.67
2022-08-12T09:02:31.947Z,30.63
2022-08-12T09:33:05.649Z,31.97
2022-08-12T09:48:23.571Z,32.75
2022-08-12T10:03:33.203Z,33.17
2022-08-12T10:18:51.753Z,33.85
2022-08-12T10:34:06.467Z,34.35
2022-08-12T10:50:02.697Z,34.48
2022-08-12T11:04:52.678Z,33.35
2022-08-12T11:19:56.695Z,32.97
2022-08-12T11:35:00.503Z,32.93
2022-08-12T11:50:06.414Z,33.49
2022-08-12T12:05:10.065Z,34.16
2022-08-12T12:20:14.401Z,34.15
2022-08-12T12:36:19.857Z,35.32
2022-08-12T12:50:45.719Z,36.77
2022-08-12T13:05:57.376Z,35.96
2022-08-12T13:21:02.532Z,34.61
2022-08-12T13:36:10.334Z,35.77
2022-08-12T13:51:24.153Z,35.29
2022-08-12T14:06:30.389Z,34.42
2022-08-12T14:21:59.847Z,35.97
2022-08-12T14:37:02.792Z,42.90
2022-08-12T14:53:13.534Z,44.82
2022-08-12T15:07:49.451Z,41.29
2022-08-12T15:22:58.149Z,41.02
2022-08-12T15:38:12.007Z,36.29
2022-08-12T15:53:17.188Z,35.08
2022-08-12T16:08:27.527Z,34.83
2022-08-12T16:23:52.037Z,33.31
2022-08-12T16:38:55.530Z,32.35
2022-08-12T16:53:58.907Z,31.81
2022-08-12T17:09:08.842Z,31.38
2022-08-12T17:24:30.513Z,30.62
2022-08-12T17:40:12.667Z,30.05
2022-08-12T17:54:59.908Z,29.38
2022-08-12T18:10:05.421Z,28.96
2022-08-12T18:26:12.380Z,28.58
2022-08-12T18:40:59.901Z,28.15
2022-08-12T18:56:06.688Z,27.78
2022-08-12T19:11:49.983Z,27.44
2022-08-12T19:26:57.254Z,27.12
2022-08-12T19:42:01.894Z,26.69
2022-08-12T19:57:08.647Z,26.28
2022-08-12T20:12:18.115Z,26.02
2022-08-12T20:27:53.684Z,25.97
2022-08-12T20:42:52.668Z,25.97
2022-08-12T20:58:02.590Z,25.99
2022-08-12T21:13:20.411Z,25.81
2022-08-12T21:28:27.523Z,25.61
2022-08-12T21:43:44.936Z,25.43
2022-08-12T21:58:52.425Z,25.44
2022-08-12T22:14:07.906Z,25.37
2022-08-12T22:29:30.846Z,25.32
2022-08-12T22:44:54.898Z,25.36
2022-08-12T22:59:58.488Z,25.32
2022-08-12T23:15:02.474Z,25.23
2022-08-12T23:30:18.418Z,25.03
2022-08-12T23:45:31.235Z,24.73
